NCAR-RAP Real-Time Weather Data

Output produced by METARs form (17 September 2019  17:04 UTC)
found at http://weather.rap.ucar.edu/surface/
 
KTUS 171653Z 13003KT 10SM CLR 26/14 A3007 RMK AO2 SLP141 T02610144
KTUS 171553Z 16009KT 10SM CLR 24/14 A3006 RMK AO2 SLP142 T02440144
KTUS 171453Z 14011KT 10SM CLR 22/16 A3006 RMK AO2 SLP142 T02170156 53010
KTUS 171353Z 15006KT 10SM CLR 19/15 A3005 RMK AO2 SLP142 T01940150
KTUS 171253Z 13008KT 10SM CLR 19/15 A3003 RMK AO2 SLP131 T01940150
KTUS 171153Z 15006KT 10SM CLR 19/16 A3002 RMK AO2 SLP131 7//// T01890156 10211 20189 53007
KTUS 171053Z 14010KT 10SM CLR 19/16 A3001 RMK AO2 SLP121 T01940156
KTUS 170953Z 11005KT 10SM CLR 21/16 A2999 RMK AO2 SLP115 T02060156
KTUS 170853Z AUTO 17009KT 10SM CLR 20/16 A3000 RMK AO2 SLP117 T02000161 56006
KTUS 170753Z 16010KT 10SM CLR 21/16 A3001 RMK AO2 SLP118 T02060161
KTUS 170653Z 15009KT 10SM CLR 21/16 A3000 RMK AO2 SLPNO T02060161 403110172
KTUS 170553Z 11010KT 10SM CLR 21/16 A3002 RMK AO2 SLP122 60011 T02110156 10239 20200 56014
KTUS 170453Z 12006KT 10SM CLR 21/17 A3004 RMK AO2 SLP129 T02110167
KTUS 170353Z 13009KT 10SM CLR 21/16 A3004 RMK AO2 RAE24 SLP132 P0000 T02060161
KTUS 170253Z 13009KT 10SM -RA BKN110 21/17 A3007 RMK AO2 PK WND 13027/0217 SLP143 P0006 60011 T02060172 51022
KTUS 170053Z 34009KT 10SM SCT110 23/14 A3003 RMK AO2 LTG DSNT W SLP129 T02330144
KTUS 162353Z 36005KT 10SM FEW100 23/16 A3000 RMK AO2 PK WND 28038/2318 LTG DSNT W-NE RAB15E24 SLP119 P0000 6//// T02330161 51021
KTUS 162351Z 35006KT 10SM SCT110 23/16 A3000 RMK AO2 PK WND 28038/2318 LTG DSNT W-NE RAB15E24 P0000
KTUS 162336Z 31010G28KT 10SM VCTS FEW100 SCT120 22/17 A3000 RMK AO2 PK WND 28038/2318 LTG DSNT W-NE RAB15E24 P0000 T02220167
KTUS 162253Z 23012G17KT 10SM CLR 27/14 A2997 RMK AO2 LTG DSNT W AND NW PRESRR SLP105 T02720144